Time;durP1;ratioP1;P1;durP2;ratioP2;P2;SDS_P1;SDS_P2;PMS_P1;PMS_P2;Temp;Humidity;BMP_temperature;BMP_pressure;BME280_temperature;BME280_humidity;BME280_pressure;Samples;Min_cycle;Max_cycle;Signal;HPM_P1;HPM_P2
2022/05/30 00:01:15;;;;;;;6.72;1.33;;;9.00;99.90;;;;;;6292738;28;20410;-72
2022/05/30 00:04:20;;;;;;;9.25;1.52;;;8.90;99.90;;;;;;6255032;28;20106;-72
2022/05/30 00:07:25;;;;;;;6.10;1.70;;;8.80;99.90;;;;;;6277289;28;20050;-72
2022/05/30 00:10:31;;;;;;;5.20;1.30;;;8.70;99.90;;;;;;6265373;28;20047;-71
2022/05/30 00:13:37;;;;;;;6.40;1.50;;;8.70;99.90;;;;;;6284188;28;20052;-71
2022/05/30 00:16:42;;;;;;;6.80;1.60;;;8.60;99.90;;;;;;6311428;28;20056;-71
2022/05/30 00:19:46;;;;;;;7.15;1.67;;;8.60;99.90;;;;;;6285976;28;20069;-71
2022/05/30 00:22:53;;;;;;;6.60;1.35;;;8.60;99.90;;;;;;6301013;28;20051;-71
2022/05/30 00:25:58;;;;;;;7.97;1.40;;;8.50;99.90;;;;;;6315191;28;20059;-71
2022/05/30 00:29:04;;;;;;;6.93;1.50;;;8.40;99.90;;;;;;6319836;28;20052;-71
2022/05/30 00:32:09;;;;;;;6.10;1.85;;;8.30;99.90;;;;;;6265860;28;20395;-71
2022/05/30 00:35:16;;;;;;;7.15;1.60;;;8.20;99.90;;;;;;6292684;28;20053;-71
2022/05/30 00:38:23;;;;;;;4.28;1.40;;;8.20;99.90;;;;;;6314928;28;20415;-71
2022/05/30 00:41:28;;;;;;;7.50;1.50;;;8.10;99.90;;;;;;6278004;28;20565;-71
2022/05/30 00:44:34;;;;;;;5.88;1.50;;;8.00;99.90;;;;;;6300550;28;20514;-71
2022/05/30 00:47:40;;;;;;;6.10;1.40;;;8.00;99.90;;;;;;6304941;28;20055;-71
2022/05/30 00:50:45;;;;;;;8.10;1.80;;;8.00;99.90;;;;;;6306018;28;20045;-71
2022/05/30 00:53:57;;;;;;;7.65;1.50;;;8.00;99.90;;;;;;6280038;28;20134;-71
2022/05/30 00:57:19;;;;;;;6.82;1.50;;;7.90;99.90;;;;;;6286538;28;20589;-71
2022/05/30 01:00:28;;;;;;;8.93;1.85;;;7.90;99.90;;;;;;6284902;28;20420;-72
2022/05/30 01:06:54;;;;;;;9.18;1.70;;;7.80;99.90;;;;;;6295228;28;20047;-71
2022/05/30 01:10:00;;;;;;;5.90;1.73;;;7.90;99.90;;;;;;6279867;28;20044;-71
2022/05/30 01:13:04;;;;;;;9.30;2.08;;;7.90;99.90;;;;;;6280325;28;20174;-71
2022/05/30 01:16:10;;;;;;;7.05;1.67;;;7.90;99.90;;;;;;6287679;28;20040;-71
2022/05/30 01:19:38;;;;;;;4.07;1.35;;;8.00;99.90;;;;;;6288979;28;20044;-71
2022/05/30 01:22:56;;;;;;;8.02;2.22;;;8.00;99.90;;;;;;6270054;28;20127;-71
2022/05/30 01:26:19;;;;;;;5.53;1.65;;;8.10;99.90;;;;;;6302870;28;20045;-71
2022/05/30 01:29:31;;;;;;;8.68;2.13;;;8.20;99.90;;;;;;6278039;28;20562;-71
2022/05/30 01:32:35;;;;;;;6.47;2.15;;;8.20;99.90;;;;;;6291296;28;20048;-71
2022/05/30 01:35:41;;;;;;;9.05;2.15;;;8.20;99.90;;;;;;6313837;28;20051;-71
2022/05/30 01:38:46;;;;;;;9.43;2.00;;;8.30;99.90;;;;;;6253131;28;20515;-71
2022/05/30 01:41:50;;;;;;;9.10;2.22;;;8.30;99.90;;;;;;6289588;28;20048;-71
2022/05/30 01:44:55;;;;;;;10.00;2.00;;;8.30;99.90;;;;;;6284410;28;20791;-71
2022/05/30 01:47:59;;;;;;;8.35;2.22;;;8.30;99.90;;;;;;6301345;28;20492;-71
2022/05/30 01:51:03;;;;;;;9.48;2.40;;;8.30;99.90;;;;;;6305150;28;20094;-71
2022/05/30 01:54:12;;;;;;;9.82;2.17;;;8.30;99.90;;;;;;6296897;28;20051;-71
2022/05/30 01:57:18;;;;;;;10.13;2.30;;;8.40;99.90;;;;;;6296324;28;20051;-71
2022/05/30 02:00:25;;;;;;;8.25;2.17;;;8.40;99.90;;;;;;6294767;28;20056;-71
2022/05/30 02:03:30;;;;;;;9.32;2.38;;;8.50;99.90;;;;;;6268610;28;20409;-71
2022/05/30 02:06:36;;;;;;;12.10;2.80;;;8.50;99.90;;;;;;6300458;28;20048;-71
2022/05/30 02:09:43;;;;;;;5.85;1.83;;;8.60;99.90;;;;;;6282236;28;20099;-71
2022/05/30 02:12:49;;;;;;;6.82;2.60;;;8.60;99.90;;;;;;6307146;28;20137;-71
2022/05/30 02:19:17;;;;;;;7.07;2.40;;;8.60;99.90;;;;;;6278687;28;20045;-69
2022/05/30 02:22:25;;;;;;;8.10;2.67;;;8.70;99.90;;;;;;6293232;28;20285;-69
2022/05/30 02:25:29;;;;;;;7.47;2.67;;;8.70;99.90;;;;;;6320624;28;20059;-70
2022/05/30 02:28:35;;;;;;;7.60;2.40;;;8.70;99.90;;;;;;6319882;28;20055;-72
2022/05/30 02:31:43;;;;;;;9.95;2.90;;;8.60;99.90;;;;;;6299429;28;20059;-70
2022/05/30 02:38:08;;;;;;;8.90;2.95;;;8.60;99.90;;;;;;6271523;28;20076;-70
2022/05/30 02:41:12;;;;;;;8.82;2.90;;;8.60;99.90;;;;;;6312873;28;20040;-70
2022/05/30 02:44:19;;;;;;;8.95;2.80;;;8.60;99.90;;;;;;6302363;28;20071;-70
2022/05/30 02:47:25;;;;;;;7.72;2.33;;;8.50;99.90;;;;;;6274462;28;20098;-70
2022/05/30 02:50:30;;;;;;;11.90;3.13;;;8.50;99.90;;;;;;6311865;28;20049;-70
2022/05/30 02:53:37;;;;;;;8.40;2.88;;;8.50;99.90;;;;;;6287541;28;20047;-70
2022/05/30 02:56:42;;;;;;;8.82;2.75;;;8.40;99.90;;;;;;6293230;28;20058;-70
2022/05/30 02:59:47;;;;;;;6.30;2.83;;;8.40;99.90;;;;;;6295941;28;20045;-70
2022/05/30 03:02:53;;;;;;;9.82;2.83;;;8.40;99.90;;;;;;6292309;28;20044;-70
2022/05/30 03:06:00;;;;;;;5.30;2.67;;;8.40;99.90;;;;;;6318822;28;20044;-70
2022/05/30 03:09:05;;;;;;;8.57;2.80;;;8.40;99.90;;;;;;6293518;28;20066;-70
2022/05/30 03:12:10;;;;;;;7.90;3.17;;;8.30;99.90;;;;;;6305601;28;20055;-69
2022/05/30 03:15:14;;;;;;;7.32;3.00;;;8.30;99.90;;;;;;6293606;28;20047;-71
2022/05/30 03:18:19;;;;;;;8.52;3.22;;;8.20;99.90;;;;;;6295255;28;20047;-70
2022/05/30 03:21:24;;;;;;;7.20;3.33;;;8.20;99.90;;;;;;6263786;28;22402;-70
2022/05/30 03:24:29;;;;;;;6.53;3.08;;;8.20;99.90;;;;;;6271706;28;20063;-70
2022/05/30 03:27:37;;;;;;;7.18;3.70;;;8.20;99.90;;;;;;6273627;28;20055;-70
2022/05/30 03:30:50;;;;;;;10.15;3.40;;;8.20;99.90;;;;;;6259152;28;20410;-70
2022/05/30 03:34:01;;;;;;;9.27;3.80;;;8.20;99.90;;;;;;6259438;28;20041;-70
2022/05/30 03:37:12;;;;;;;10.38;3.33;;;8.10;99.90;;;;;;6266987;28;20049;-71
2022/05/30 03:40:22;;;;;;;7.32;3.42;;;8.10;99.90;;;;;;6263289;28;20499;-70
2022/05/30 03:43:32;;;;;;;7.03;3.10;;;8.10;99.90;;;;;;6258519;28;20044;-70
2022/05/30 03:46:43;;;;;;;10.70;3.35;;;8.10;99.90;;;;;;6268270;28;20052;-72
2022/05/30 03:49:52;;;;;;;7.22;3.38;;;8.10;99.90;;;;;;6260017;28;20060;-71
2022/05/30 03:53:05;;;;;;;10.68;3.72;;;8.10;99.90;;;;;;6285868;28;20112;-71
2022/05/30 03:56:33;;;;;;;9.07;3.50;;;8.10;99.90;;;;;;6277089;28;20059;-71
2022/05/30 03:59:41;;;;;;;9.95;3.55;;;8.10;99.90;;;;;;6295030;28;20040;-70
2022/05/30 04:02:49;;;;;;;7.78;3.13;;;8.20;99.90;;;;;;6297179;28;20044;-70
2022/05/30 04:05:59;;;;;;;10.40;3.45;;;8.20;99.90;;;;;;6288244;28;20502;-72
2022/05/30 04:09:12;;;;;;;7.25;2.70;;;8.20;99.90;;;;;;6261311;28;20044;-69
2022/05/30 04:12:24;;;;;;;7.28;2.75;;;8.30;99.90;;;;;;6279798;28;20156;-71
2022/05/30 04:15:31;;;;;;;245.60;13.88;;;8.30;99.90;;;;;;6280771;28;20060;-71
2022/05/30 04:18:41;;;;;;;4.93;1.90;;;8.40;99.90;;;;;;6304847;28;20056;-71
2022/05/30 04:21:58;;;;;;;6.25;2.88;;;8.50;99.90;;;;;;6295719;28;20105;-72
2022/05/30 04:25:11;;;;;;;6.70;2.28;;;8.50;99.90;;;;;;6295420;28;20060;-71
2022/05/30 04:28:23;;;;;;;5.18;2.42;;;8.60;99.90;;;;;;6267547;28;20049;-72
2022/05/30 04:31:34;;;;;;;34.53;3.53;;;8.70;99.90;;;;;;6273277;28;20044;-69
2022/05/30 04:34:45;;;;;;;6.47;1.90;;;8.80;99.90;;;;;;6257181;28;20482;-71
2022/05/30 04:37:55;;;;;;;432.42;19.63;;;9.00;99.90;;;;;;6271959;28;20569;-71
2022/05/30 04:41:27;;;;;;;6.60;1.83;;;9.20;99.90;;;;;;6276564;28;20420;-70
2022/05/30 04:44:38;;;;;;;3.25;1.27;;;9.30;99.90;;;;;;6276270;28;20041;-71
2022/05/30 04:47:50;;;;;;;7.10;1.73;;;9.30;99.90;;;;;;6279501;28;20418;-72
2022/05/30 04:51:02;;;;;;;6.60;2.03;;;9.40;99.90;;;;;;6277195;28;20067;-72
2022/05/30 04:54:13;;;;;;;7.70;1.47;;;9.50;99.90;;;;;;6263350;28;20036;-70
2022/05/30 04:57:18;;;;;;;8.95;2.30;;;9.50;99.90;;;;;;6275659;28;20059;-73
2022/05/30 05:00:45;;;;;;;5.43;2.33;;;9.40;99.90;;;;;;6271611;28;20055;-71
2022/05/30 05:03:58;;;;;;;7.13;2.38;;;9.30;99.90;;;;;;6255681;28;20172;-71
2022/05/30 05:07:04;;;;;;;6.22;2.42;;;9.30;99.90;;;;;;6272105;28;20045;-72
2022/05/30 05:10:29;;;;;;;7.63;2.58;;;9.30;99.90;;;;;;6280601;28;20504;-72
2022/05/30 05:16:53;;;;;;;7.80;2.40;;;9.10;99.90;;;;;;6200190;28;20050;-72
2022/05/30 05:19:55;;;;;;;7.40;3.22;;;9.10;99.90;;;;;;6200343;28;20125;-73
2022/05/30 05:22:57;;;;;;;5.53;2.40;;;9.10;99.90;;;;;;6176244;28;20506;-73
2022/05/30 05:26:01;;;;;;;4.93;2.10;;;9.10;99.90;;;;;;6201158;28;20418;-73
2022/05/30 05:29:03;;;;;;;6.97;2.95;;;9.20;99.90;;;;;;6178496;28;20106;-73
2022/05/30 05:32:08;;;;;;;7.28;1.92;;;9.30;99.90;;;;;;6181830;28;20050;-73
2022/05/30 05:35:10;;;;;;;6.90;2.60;;;9.40;99.90;;;;;;6201652;28;20045;-74
2022/05/30 05:38:12;;;;;;;4.90;1.77;;;9.50;99.90;;;;;;6202048;28;20050;-74
2022/05/30 05:41:16;;;;;;;7.10;1.90;;;9.60;99.90;;;;;;6183057;28;20058;-75
2022/05/30 05:44:18;;;;;;;;;;;9.90;99.90;;;;;;6201265;28;20050;-73
2022/05/30 05:47:20;;;;;;;4.25;1.77;;;10.20;99.90;;;;;;6201055;28;20366;-75
2022/05/30 05:50:22;;;;;;;2.75;1.40;;;10.40;99.90;;;;;;6198970;28;20065;-75
2022/05/30 05:53:24;;;;;;;3.85;1.17;;;10.60;99.90;;;;;;6181415;28;20051;-73
2022/05/30 05:56:29;;;;;;;6.65;1.75;;;10.70;99.90;;;;;;6184265;28;20414;-76
2022/05/30 05:59:31;;;;;;;6.07;2.22;;;10.80;99.90;;;;;;6182230;28;20046;-74
2022/05/30 06:02:33;;;;;;;1999.90;557.75;;;10.80;99.90;;;;;;6199680;28;20046;-73
2022/05/30 06:05:35;;;;;;;7.80;2.75;;;10.80;99.90;;;;;;6182208;28;20054;-74
2022/05/30 06:08:37;;;;;;;11.95;2.72;;;11.10;99.90;;;;;;6166941;28;20043;-73
2022/05/30 06:11:41;;;;;;;5.53;1.25;;;11.10;99.90;;;;;;6155908;28;20047;-72
2022/05/30 06:14:42;;;;;;;;;;;11.30;99.90;;;;;;6175242;28;20514;-72
2022/05/30 06:17:46;;;;;;;5.90;1.35;;;11.30;99.90;;;;;;6159109;28;19928;-72
2022/05/30 06:20:47;;;;;;;6.47;1.00;;;11.60;99.90;;;;;;6176945;28;20062;-73
2022/05/30 06:23:56;;;;;;;5.50;1.40;;;12.30;99.90;;;;;;6153385;28;20054;-73
2022/05/30 06:27:02;;;;;;;198.77;9.15;;;12.70;99.90;;;;;;6160544;28;20067;-72
2022/05/30 06:30:05;;;;;;;5.63;1.20;;;12.90;99.90;;;;;;6160382;28;20416;-74
2022/05/30 06:33:07;;;;;;;;;;;12.80;99.90;;;;;;6175495;28;20058;-74
2022/05/30 06:36:11;;;;;;;4.05;1.25;;;12.60;99.90;;;;;;6159387;28;19929;-74
2022/05/30 06:39:14;;;;;;;3.95;1.13;;;12.40;99.90;;;;;;6159611;28;20480;-74
2022/05/30 06:42:17;;;;;;;6.32;1.35;;;12.50;99.90;;;;;;6159664;28;20419;-73
2022/05/30 06:45:19;;;;;;;33.35;2.15;;;12.50;99.90;;;;;;6176433;28;20057;-74
2022/05/30 06:48:21;;;;;;;4.10;0.98;;;12.30;99.90;;;;;;6179626;28;20050;-71
2022/05/30 06:51:25;;;;;;;4.53;1.10;;;12.40;99.90;;;;;;6176369;28;20065;-71
2022/05/30 06:54:27;;;;;;;4.38;1.08;;;12.30;99.90;;;;;;6176743;28;20047;-74
2022/05/30 07:00:51;;;;;;;5.25;1.10;;;12.10;99.90;;;;;;6176172;28;20085;-73
2022/05/30 07:03:54;;;;;;;2.78;0.93;;;12.60;99.90;;;;;;6158414;28;20058;-73
2022/05/30 07:06:56;;;;;;;3.13;0.70;;;12.80;99.90;;;;;;6143563;29;20071;-72
2022/05/30 07:09:58;;;;;;;3.63;0.40;;;12.80;99.90;;;;;;6163606;28;20059;-73
2022/05/30 07:13:01;;;;;;;1.98;0.60;;;12.80;99.90;;;;;;6175843;28;20050;-73
2022/05/30 07:16:03;;;;;;;3.65;0.50;;;12.40;99.90;;;;;;6185188;28;20181;-73
2022/05/30 07:19:05;;;;;;;2.65;0.70;;;12.40;99.90;;;;;;6199869;28;20418;-73
2022/05/30 07:22:07;;;;;;;2.67;0.70;;;12.50;99.90;;;;;;6194059;28;20479;-73
2022/05/30 07:25:10;;;;;;;2.33;0.60;;;12.60;99.90;;;;;;6169735;28;20051;-72
2022/05/30 07:28:13;;;;;;;3.47;0.80;;;12.70;99.90;;;;;;6193354;28;20053;-73
2022/05/30 07:31:18;;;;;;;4.68;0.73;;;12.60;99.90;;;;;;6198551;28;20452;-73
2022/05/30 07:34:20;;;;;;;3.00;0.68;;;12.30;99.90;;;;;;6181123;28;20058;-73
2022/05/30 07:37:22;;;;;;;2.20;0.50;;;12.20;99.90;;;;;;6187216;28;20499;-73
2022/05/30 07:40:23;;;;;;;1.98;0.70;;;12.40;99.90;;;;;;6183369;28;20062;-73
2022/05/30 07:43:27;;;;;;;2.65;0.57;;;13.20;99.90;;;;;;6174772;28;20066;-73
2022/05/30 07:46:29;;;;;;;2.63;0.60;;;13.70;99.90;;;;;;6170593;28;20054;-73
2022/05/30 07:49:31;;;;;;;2.25;0.45;;;14.20;99.90;;;;;;6186840;28;21617;-73
2022/05/30 07:52:33;;;;;;;11.77;1.00;;;14.40;99.90;;;;;;6181095;28;20057;-73
2022/05/30 07:55:35;;;;;;;3.55;0.50;;;14.40;99.90;;;;;;6194980;28;20050;-73
2022/05/30 07:58:39;;;;;;;2.05;0.50;;;14.30;99.90;;;;;;6173511;28;20058;-73
2022/05/30 08:01:41;;;;;;;3.17;0.60;;;14.10;99.90;;;;;;6175355;28;20062;-73
2022/05/30 08:04:43;;;;;;;2.38;0.70;;;14.00;99.90;;;;;;6196550;28;20215;-73
2022/05/30 08:07:46;;;;;;;1.20;0.47;;;13.60;99.90;;;;;;6181395;28;20053;-73
2022/05/30 08:10:48;;;;;;;3.47;0.70;;;13.30;99.90;;;;;;6180773;28;20069;-73
2022/05/30 08:13:52;;;;;;;2.50;0.60;;;13.30;99.90;;;;;;6198141;28;20494;-73
2022/05/30 08:16:54;;;;;;;;;;;13.40;99.90;;;;;;6181252;28;20259;-73
2022/05/30 08:19:57;;;;;;;1.98;0.47;;;13.30;99.90;;;;;;6181491;28;19969;-73
2022/05/30 08:22:59;;;;;;;0.77;0.40;;;13.20;99.90;;;;;;6181299;28;20114;-73
2022/05/30 08:26:02;;;;;;;2.65;0.50;;;13.40;99.90;;;;;;6181474;28;20054;-73
2022/05/30 08:29:06;;;;;;;3.03;0.73;;;13.90;99.90;;;;;;6178087;28;20054;-72
2022/05/30 08:32:08;;;;;;;;;;;14.40;99.90;;;;;;6174314;28;20467;-72
2022/05/30 08:35:13;;;;;;;2.42;0.60;;;14.70;99.90;;;;;;6184221;28;19926;-73
2022/05/30 08:38:16;;;;;;;3.30;0.70;;;14.90;99.90;;;;;;6198877;28;20103;-72
2022/05/30 08:44:40;;;;;;;1.35;0.60;;;15.20;99.90;;;;;;6180462;28;20052;-72
2022/05/30 08:47:50;;;;;;;2.45;0.40;;;15.10;99.90;;;;;;6180762;28;20071;-72
2022/05/30 08:51:03;;;;;;;1.98;0.40;;;15.20;99.90;;;;;;6181014;28;20380;-72
2022/05/30 08:54:25;;;;;;;1.30;0.30;;;15.20;99.90;;;;;;6192987;28;20168;-72
2022/05/30 08:57:36;;;;;;;1.52;0.30;;;15.40;99.90;;;;;;6196750;28;20053;-73
2022/05/30 09:00:47;;;;;;;2.00;0.30;;;15.30;99.90;;;;;;6197770;28;20046;-72
2022/05/30 09:04:08;;;;;;;1.05;0.40;;;15.40;98.60;;;;;;6197809;28;20050;-72
2022/05/30 09:07:16;;;;;;;1.60;0.25;;;15.30;99.90;;;;;;6198207;28;20137;-72
2022/05/30 09:10:23;;;;;;;1.08;0.30;;;15.10;99.90;;;;;;6178832;28;20407;-72
2022/05/30 09:13:33;;;;;;;2.17;0.60;;;15.40;99.90;;;;;;6187479;28;20048;-72
2022/05/30 09:16:41;;;;;;;0.90;0.17;;;15.70;99.90;;;;;;6190386;28;20066;-73
2022/05/30 09:19:44;;;;;;;0.50;0.20;;;15.90;99.90;;;;;;6156192;28;20051;-72
2022/05/30 09:22:46;;;;;;;0.97;0.30;;;15.80;98.40;;;;;;6170739;28;20090;-72
2022/05/30 09:26:00;;;;;;;1.38;0.43;;;15.60;98.60;;;;;;6197354;28;20481;-72
2022/05/30 09:29:04;;;;;;;2.25;0.40;;;15.40;99.40;;;;;;6180301;28;20068;-73
2022/05/30 09:32:15;;;;;;;2.03;0.40;;;15.60;98.70;;;;;;6197458;28;20050;-73
2022/05/30 09:35:25;;;;;;;1.90;0.50;;;15.60;99.90;;;;;;6179705;28;20058;-73
2022/05/30 09:38:27;;;;;;;2.08;0.45;;;15.40;98.40;;;;;;6217757;28;20055;-72
2022/05/30 09:41:31;;;;;;;1.15;0.20;;;15.30;99.90;;;;;;6180004;28;20055;-73
2022/05/30 09:44:42;;;;;;;1.60;0.47;;;15.20;99.80;;;;;;6197063;28;20058;-74
2022/05/30 09:48:00;;;;;;;2.97;0.70;;;14.90;99.90;;;;;;6179523;28;20129;-71
2022/05/30 09:51:02;;;;;;;1.20;0.30;;;15.00;99.90;;;;;;6172513;28;20053;-74
2022/05/30 09:54:04;;;;;;;1.52;0.40;;;15.10;99.90;;;;;;6197082;28;20506;-73
2022/05/30 09:57:12;;;;;;;1.67;0.40;;;14.70;99.90;;;;;;6179669;28;20483;-72
2022/05/30 10:00:19;;;;;;;2.25;0.50;;;14.20;99.90;;;;;;6155909;28;20055;-72
2022/05/30 10:03:31;;;;;;;1.50;0.57;;;13.40;99.90;;;;;;6159603;28;20491;-73
2022/05/30 10:06:33;;;;;;;1.48;0.38;;;13.20;99.90;;;;;;6181475;28;20050;-73
2022/05/30 10:09:39;;;;;;;2.00;0.60;;;13.70;99.90;;;;;;6199419;28;20495;-72
2022/05/30 10:12:44;;;;;;;1.40;0.52;;;13.90;99.90;;;;;;6198004;28;20050;-72
2022/05/30 10:15:56;;;;;;;1.90;0.60;;;13.70;99.90;;;;;;6171999;28;20054;-72
2022/05/30 10:19:04;;;;;;;1.98;0.40;;;13.60;99.90;;;;;;6175446;28;20057;-72
2022/05/30 10:29:17;;;;;;;1.27;0.50;;;13.40;99.90;;;;;;6197393;28;20046;-73
2022/05/30 10:32:28;;;;;;;0.47;0.40;;;13.40;99.90;;;;;;6182170;28;20105;-73
2022/05/30 10:35:38;;;;;;;2.55;0.45;;;13.40;99.90;;;;;;6182429;28;20061;-74
2022/05/30 10:38:53;;;;;;;2.65;0.40;;;13.20;99.90;;;;;;6203075;28;20050;-74
2022/05/30 10:42:01;;;;;;;0.98;0.43;;;13.10;99.90;;;;;;6185602;28;20411;-73
2022/05/30 10:45:10;;;;;;;1.40;0.60;;;13.40;99.90;;;;;;6178107;28;20054;-73
2022/05/30 10:48:19;;;;;;;3.45;0.70;;;13.70;99.90;;;;;;6164916;28;20523;-73
2022/05/30 10:51:28;;;;;;;3.35;0.73;;;13.90;99.90;;;;;;6181701;28;20539;-74
2022/05/30 10:54:33;;;;;;;2.45;0.50;;;13.90;99.90;;;;;;6199574;28;20050;-73
2022/05/30 10:57:41;;;;;;;0.68;0.35;;;13.80;99.90;;;;;;6197569;28;20038;-73
2022/05/30 11:00:49;;;;;;;1.45;0.60;;;13.70;99.90;;;;;;6181934;28;20063;-73
2022/05/30 11:04:01;;;;;;;1.00;0.60;;;13.80;99.90;;;;;;6181058;28;20050;-73
2022/05/30 11:07:25;;;;;;;1.00;0.50;;;13.70;99.90;;;;;;6197415;28;20046;-73
2022/05/30 11:10:39;;;;;;;1.90;0.50;;;13.50;99.90;;;;;;6196917;28;20057;-73
2022/05/30 11:13:47;;;;;;;1.95;0.35;;;13.30;99.90;;;;;;6195308;28;20500;-73
2022/05/30 11:16:55;;;;;;;1.35;0.40;;;13.00;99.90;;;;;;6191316;28;20058;-71
2022/05/30 11:20:05;;;;;;;1.42;0.40;;;12.90;99.90;;;;;;6192917;28;20063;-71
2022/05/30 11:23:09;;;;;;;1.50;0.57;;;12.90;99.90;;;;;;6188807;28;20055;-72
2022/05/30 11:26:42;;;;;;;1.30;0.40;;;12.80;99.90;;;;;;6197611;28;20053;-72
2022/05/30 11:30:11;;;;;;;0.50;0.30;;;13.10;99.90;;;;;;6199321;28;20053;-72
2022/05/30 11:33:44;;;;;;;1.85;0.65;;;13.20;99.90;;;;;;6199782;28;20143;-70
2022/05/30 11:37:01;;;;;;;2.28;0.40;;;13.50;99.90;;;;;;6200417;28;20042;-71
2022/05/30 11:40:17;;;;;;;0.95;0.40;;;13.60;99.90;;;;;;6192627;28;20057;-72
2022/05/30 11:43:45;;;;;;;1.25;0.50;;;13.50;99.90;;;;;;6197518;28;20050;-71
2022/05/30 11:46:58;;;;;;;3.38;0.50;;;13.40;99.90;;;;;;6198998;28;20053;-70
2022/05/30 11:50:10;;;;;;;1.52;0.30;;;13.70;99.90;;;;;;6181807;28;20048;-72
2022/05/30 11:53:37;;;;;;;2.42;0.55;;;13.70;99.90;;;;;;6182075;28;20054;-72
2022/05/30 11:56:48;;;;;;;0.75;0.50;;;13.60;99.90;;;;;;6181221;28;20462;-71
2022/05/30 12:00:07;;;;;;;0.63;0.40;;;13.70;99.90;;;;;;6198725;28;20042;-70
2022/05/30 12:04:03;;;;;;;2.35;0.40;;;13.70;99.90;;;;;;6198844;28;20137;-71
2022/05/30 12:07:38;;;;;;;0.70;0.20;;;13.50;99.90;;;;;;6181258;28;20443;-71
2022/05/30 12:10:58;;;;;;;1.15;0.30;;;13.50;99.90;;;;;;6188833;28;20054;-71
2022/05/30 12:14:14;;;;;;;1.48;0.30;;;13.50;99.90;;;;;;6197773;28;20049;-71
2022/05/30 12:24:39;;;;;;;2.42;0.75;;;13.40;99.90;;;;;;6187576;28;20133;-72
2022/05/30 12:27:41;;;;;;;2.17;0.70;;;13.50;99.90;;;;;;6181201;28;20058;-71
2022/05/30 12:30:47;;;;;;;1.98;0.50;;;13.70;99.90;;;;;;6180774;28;20054;-73
2022/05/30 12:33:50;;;;;;;2.15;0.70;;;13.90;99.90;;;;;;6198254;28;20043;-72
2022/05/30 12:36:52;;;;;;;2.50;0.73;;;13.80;99.90;;;;;;6197999;28;20146;-72
2022/05/30 12:39:59;;;;;;;1.15;0.30;;;13.70;99.90;;;;;;6218569;28;20042;-72
2022/05/30 12:43:32;;;;;;;1.20;0.20;;;13.80;99.90;;;;;;6221927;28;20058;-73
2022/05/30 12:46:51;;;;;;;1.33;0.30;;;14.20;99.90;;;;;;6209355;28;20182;-73
2022/05/30 12:50:32;;;;;;;1.73;0.47;;;14.30;99.90;;;;;;6180511;28;20491;-72
2022/05/30 12:54:07;;;;;;;1.73;0.40;;;14.40;99.90;;;;;;6197849;28;20125;-72
2022/05/30 12:57:35;;;;;;;1.08;0.38;;;14.40;99.90;;;;;;6197927;28;20046;-72
2022/05/30 13:00:54;;;;;;;1.60;0.60;;;14.40;99.90;;;;;;6198340;28;20509;-71
2022/05/30 13:04:08;;;;;;;2.53;1.05;;;14.70;99.90;;;;;;6179393;28;20150;-73
2022/05/30 13:07:16;;;;;;;2.50;1.45;;;14.50;99.90;;;;;;6180382;28;20050;-73
2022/05/30 13:10:18;;;;;;;3.88;1.98;;;13.90;99.90;;;;;;6197803;28;20054;-72
2022/05/30 13:13:26;;;;;;;2.97;1.10;;;13.60;99.90;;;;;;6180346;28;20058;-72
2022/05/30 13:16:41;;;;;;;1.67;0.82;;;13.50;99.90;;;;;;6188356;28;20526;-72
2022/05/30 13:19:49;;;;;;;3.08;0.88;;;13.30;99.90;;;;;;6190113;28;20050;-71
2022/05/30 13:22:54;;;;;;;0.65;0.35;;;13.30;99.90;;;;;;6179998;28;20058;-71
2022/05/30 13:25:56;;;;;;;2.00;0.65;;;13.50;99.90;;;;;;6198272;28;20058;-71
2022/05/30 13:29:01;;;;;;;1.55;0.30;;;13.60;99.90;;;;;;6197595;28;20058;-71
2022/05/30 13:32:06;;;;;;;0.73;0.43;;;13.70;99.90;;;;;;6179122;28;20144;-70
2022/05/30 13:35:12;;;;;;;2.03;0.60;;;13.80;99.90;;;;;;6193960;28;20065;-70
2022/05/30 13:38:15;;;;;;;2.08;0.70;;;14.10;99.90;;;;;;6183569;28;20403;-71
2022/05/30 13:41:26;;;;;;;2.80;0.57;;;14.30;99.90;;;;;;6202168;28;20054;-71
2022/05/30 13:44:30;;;;;;;0.47;0.30;;;14.40;99.90;;;;;;6180960;28;20054;-71
2022/05/30 13:47:32;;;;;;;0.82;0.30;;;14.40;99.90;;;;;;6183802;28;20502;-71
2022/05/30 13:50:56;;;;;;;1.13;0.40;;;14.30;99.90;;;;;;6193081;28;20077;-72
2022/05/30 13:53:58;;;;;;;0.93;0.40;;;14.20;99.90;;;;;;6205578;28;20066;-71
2022/05/30 13:57:01;;;;;;;1.00;0.75;;;14.20;99.90;;;;;;6184440;28;20054;-73
2022/05/30 14:00:09;;;;;;;1.55;0.40;;;14.00;99.90;;;;;;6184178;28;20050;-74
2022/05/30 14:03:11;;;;;;;2.22;0.57;;;13.90;99.90;;;;;;6201617;28;20042;-72
2022/05/30 14:06:31;;;;;;;6.53;3.60;;;13.80;99.90;;;;;;6201502;28;20414;-72
2022/05/30 14:09:34;;;;;;;55.65;33.97;;;13.80;99.90;;;;;;6178009;28;20053;-72
2022/05/30 14:12:38;;;;;;;9.57;5.68;;;14.10;99.90;;;;;;6201495;28;20042;-73
2022/05/30 14:15:40;;;;;;;1.95;1.45;;;14.20;99.90;;;;;;6183256;28;20491;-72
2022/05/30 14:18:47;;;;;;;2.05;1.73;;;14.20;99.90;;;;;;6184284;28;20046;-72
2022/05/30 14:21:54;;;;;;;6.65;4.13;;;14.40;99.90;;;;;;6166338;28;20502;-72
2022/05/30 14:25:00;;;;;;;2.03;1.77;;;14.10;99.90;;;;;;6159902;28;20419;-72
2022/05/30 14:28:09;;;;;;;2.58;1.83;;;13.80;99.90;;;;;;6168489;28;20531;-72
2022/05/30 14:31:14;;;;;;;1.40;0.80;;;13.70;99.90;;;;;;6201167;28;20046;-72
2022/05/30 14:34:18;;;;;;;0.63;0.38;;;14.00;99.90;;;;;;6183640;28;20102;-72
2022/05/30 14:37:28;;;;;;;0.50;0.50;;;13.80;99.90;;;;;;6201244;28;20049;-72
2022/05/30 14:40:35;;;;;;;2.42;0.73;;;13.80;99.90;;;;;;6200902;28;20051;-72
2022/05/30 14:43:48;;;;;;;2.25;0.60;;;13.80;99.90;;;;;;6183302;28;20050;-72
2022/05/30 14:46:51;;;;;;;2.65;0.40;;;13.80;99.90;;;;;;6199943;28;20510;-72
2022/05/30 14:50:00;;;;;;;0.55;0.25;;;13.60;99.90;;;;;;6201023;28;20061;-72
2022/05/30 14:53:06;;;;;;;1.25;0.20;;;13.60;99.90;;;;;;6159958;28;20055;-72
2022/05/30 14:56:12;;;;;;;1.58;0.30;;;13.50;99.90;;;;;;6175719;28;20059;-72
2022/05/30 14:59:31;;;;;;;2.60;0.60;;;13.50;99.90;;;;;;6159307;28;20169;-72
2022/05/30 15:05:52;;;;;;;2.28;0.30;;;13.50;99.90;;;;;;6200432;28;20130;-74
2022/05/30 15:08:56;;;;;;;6.57;4.05;;;13.40;99.90;;;;;;6182911;28;20082;-73
2022/05/30 15:11:58;;;;;;;2.20;0.90;;;13.40;99.90;;;;;;6200312;28;20050;-73
2022/05/30 15:15:00;;;;;;;2.08;0.50;;;13.30;99.90;;;;;;6174831;28;20050;-71
2022/05/30 15:18:02;;;;;;;3.78;0.85;;;13.10;99.90;;;;;;6178742;28;20042;-75
2022/05/30 15:21:04;;;;;;;17.67;12.15;;;13.20;99.90;;;;;;6179789;28;20054;-70
2022/05/30 15:24:13;;;;;;;18.02;13.00;;;13.40;99.90;;;;;;6198677;28;20046;-72
2022/05/30 15:27:17;;;;;;;2.42;1.17;;;13.50;99.90;;;;;;6199538;28;20109;-73
2022/05/30 15:30:20;;;;;;;3.20;1.77;;;13.60;99.90;;;;;;6181976;28;20066;-73
2022/05/30 15:33:22;;;;;;;1.90;0.80;;;13.40;99.90;;;;;;6200055;28;20046;-72
2022/05/30 15:36:24;;;;;;;3.72;3.10;;;13.30;99.90;;;;;;6171058;28;20050;-74
2022/05/30 15:39:28;;;;;;;1.83;0.30;;;13.30;99.90;;;;;;6172493;28;20204;-71
2022/05/30 15:42:31;;;;;;;2.45;0.40;;;13.30;99.90;;;;;;6199363;28;20050;-71
2022/05/30 15:45:36;;;;;;;1.55;0.98;;;13.30;99.90;;;;;;6193201;28;20072;-71
2022/05/30 15:48:38;;;;;;;1.95;1.00;;;13.40;99.90;;;;;;6190551;28;20050;-72
2022/05/30 15:51:40;;;;;;;2.17;1.00;;;13.50;99.90;;;;;;6188785;28;20062;-75
2022/05/30 15:58:08;;;;;;;2.78;1.20;;;13.70;99.90;;;;;;6174016;28;20051;-72
2022/05/30 16:01:10;;;;;;;1.30;1.20;;;13.90;99.90;;;;;;6194929;28;20054;-72
2022/05/30 16:04:12;;;;;;;3.45;1.27;;;14.20;99.90;;;;;;6178805;28;20046;-72
2022/05/30 16:07:16;;;;;;;3.75;1.20;;;14.10;99.90;;;;;;6226539;23;20079;-72
2022/05/30 16:10:20;;;;;;;1.90;1.13;;;14.00;99.90;;;;;;6969482;23;20065;-63
2022/05/30 16:13:23;;;;;;;1.73;0.80;;;13.90;99.90;;;;;;6195799;28;20054;-62
2022/05/30 16:30:02;;;;;;;2.08;1.20;;;13.80;99.90;;;;;;6577050;23;20059;-67
2022/05/30 16:33:14;;;;;;;2.47;1.02;;;13.70;99.90;;;;;;6167327;28;20495;-68
2022/05/30 16:36:35;;;;;;;3.53;1.42;;;13.60;99.90;;;;;;6150859;28;20057;-68
2022/05/30 16:39:50;;;;;;;1.85;1.27;;;13.50;99.90;;;;;;6162034;28;20050;-68
2022/05/30 16:43:01;;;;;;;2.15;1.45;;;13.40;99.90;;;;;;6168625;28;20050;-68
2022/05/30 16:46:39;;;;;;;2.03;1.55;;;13.30;99.90;;;;;;6172691;28;20046;-67
2022/05/30 16:49:56;;;;;;;1.67;1.50;;;13.20;99.90;;;;;;6165534;28;20054;-68
2022/05/30 16:53:12;;;;;;;2.55;1.23;;;13.20;99.90;;;;;;6172482;28;20172;-67
2022/05/30 16:56:23;;;;;;;2.83;1.40;;;13.20;99.90;;;;;;6171215;28;20046;-69
2022/05/30 16:59:34;;;;;;;2.45;1.48;;;13.30;99.90;;;;;;6172780;28;20419;-68
2022/05/30 17:02:54;;;;;;;2.47;2.05;;;13.20;99.90;;;;;;6168695;28;20565;-68
2022/05/30 17:06:16;;;;;;;4.22;1.02;;;13.20;99.90;;;;;;6168149;28;20050;-68
